createdAt,value
2023-09-06T00:00:50.093Z,25.70
2023-09-06T00:02:52.758Z,25.70
2023-09-06T00:04:56.114Z,25.67
2023-09-06T00:06:57.907Z,25.66
2023-09-06T00:08:59.422Z,25.65
2023-09-06T00:11:05.398Z,25.65
2023-09-06T00:13:08.085Z,25.64
2023-09-06T00:15:10.434Z,25.63
2023-09-06T00:17:11.958Z,25.62
2023-09-06T00:19:14.528Z,25.62
2023-09-06T00:21:15.998Z,25.61
2023-09-06T00:23:18.604Z,25.60
2023-09-06T00:25:20.147Z,25.58
2023-09-06T00:27:21.680Z,25.59
2023-09-06T00:29:23.216Z,25.58
2023-09-06T00:31:24.890Z,25.56
2023-09-06T00:33:27.673Z,25.56
2023-09-06T00:35:29.325Z,25.56
2023-09-06T00:37:41.176Z,25.55
2023-09-06T00:39:42.686Z,25.53
2023-09-06T00:41:46.254Z,25.53
2023-09-06T00:43:47.812Z,25.52
2023-09-06T00:45:51.863Z,25.51
2023-09-06T00:47:57.165Z,25.51
2023-09-06T00:49:59.201Z,25.50
2023-09-06T00:52:00.762Z,25.49
2023-09-06T00:54:02.243Z,25.48
2023-09-06T00:56:04.347Z,25.47
2023-09-06T00:58:07.349Z,25.46
2023-09-06T01:00:24.287Z,25.46
2023-09-06T01:02:26.495Z,25.44
2023-09-06T01:04:28.203Z,25.44
2023-09-06T01:06:31.020Z,25.44
2023-09-06T01:08:37.489Z,25.43
2023-09-06T01:10:38.949Z,25.42
2023-09-06T01:12:40.756Z,25.41
2023-09-06T01:14:42.390Z,25.40
2023-09-06T01:16:47.025Z,25.40
2023-09-06T01:18:49.058Z,25.39
2023-09-06T01:20:57.531Z,25.38
2023-09-06T01:23:07.694Z,25.36
2023-09-06T01:25:10.237Z,25.35
2023-09-06T01:27:13.429Z,25.36
2023-09-06T01:29:14.917Z,25.34
2023-09-06T01:31:17.231Z,25.34
2023-09-06T01:33:18.859Z,25.34
2023-09-06T01:35:20.395Z,25.33
2023-09-06T01:37:24.876Z,25.32
2023-09-06T01:39:27.280Z,25.32
2023-09-06T01:41:28.787Z,25.32
2023-09-06T01:43:32.515Z,25.31
2023-09-06T01:45:36.561Z,25.30
2023-09-06T01:47:38.142Z,25.29
2023-09-06T01:49:39.671Z,25.29
2023-09-06T01:51:41.131Z,25.27
2023-09-06T01:53:43.180Z,25.27
2023-09-06T01:55:45.028Z,25.26
2023-09-06T01:57:46.522Z,25.25
2023-09-06T01:59:51.839Z,25.15
2023-09-06T02:01:56.078Z,25.24
2023-09-06T02:03:57.796Z,25.24
2023-09-06T02:05:59.347Z,25.23
2023-09-06T02:08:01.090Z,25.23
2023-09-06T02:10:04.144Z,25.22
2023-09-06T02:12:06.754Z,25.21
2023-09-06T02:14:08.230Z,25.20
2023-09-06T02:16:10.059Z,25.19
2023-09-06T02:18:16.228Z,25.18
2023-09-06T02:20:21.379Z,25.18
2023-09-06T02:22:23.238Z,25.17
2023-09-06T02:24:24.814Z,25.16
2023-09-06T02:26:26.369Z,25.16
2023-09-06T02:28:28.341Z,25.14
2023-09-06T02:30:30.191Z,25.14
2023-09-06T02:32:33.205Z,25.13
2023-09-06T02:34:35.331Z,25.12
2023-09-06T02:36:36.766Z,25.12
2023-09-06T02:38:38.243Z,25.11
2023-09-06T02:40:41.983Z,25.11
2023-09-06T02:42:45.341Z,25.10
2023-09-06T02:44:47.498Z,25.08
2023-09-06T02:46:53.511Z,25.08
2023-09-06T02:48:58.956Z,25.08
2023-09-06T02:51:00.961Z,25.07
2023-09-06T02:53:04.422Z,25.07
2023-09-06T02:55:11.846Z,25.07
2023-09-06T02:57:15.206Z,25.07
2023-09-06T02:59:17.037Z,25.06
2023-09-06T03:05:42.672Z,25.04
2023-09-06T03:07:45.789Z,25.03
2023-09-06T03:09:47.391Z,25.02
2023-09-06T03:11:49.353Z,25.01
2023-09-06T03:13:56.409Z,25.01
2023-09-06T03:16:00.795Z,25.00
2023-09-06T03:18:03.563Z,25.01
2023-09-06T03:20:19.795Z,25.00
2023-09-06T03:22:24.330Z,24.99
2023-09-06T03:24:25.884Z,24.98
2023-09-06T03:26:27.331Z,24.99
2023-09-06T03:28:29.698Z,24.97
2023-09-06T03:30:31.628Z,24.97
2023-09-06T03:32:33.227Z,24.97
2023-09-06T03:34:35.645Z,24.97
2023-09-06T03:36:37.108Z,24.96
2023-09-06T03:38:38.651Z,24.95
2023-09-06T03:40:43.395Z,24.94
2023-09-06T03:42:45.115Z,24.94
2023-09-06T03:44:47.660Z,24.93
2023-09-06T03:46:50.280Z,24.93
2023-09-06T03:48:52.143Z,24.92
2023-09-06T03:51:04.048Z,24.92
2023-09-06T03:53:06.037Z,24.92
2023-09-06T03:55:11.020Z,24.90
2023-09-06T03:57:15.176Z,24.91
2023-09-06T03:59:17.833Z,24.88
2023-09-06T04:01:20.407Z,24.90
2023-09-06T04:03:24.100Z,24.88
2023-09-06T04:05:27.013Z,24.87
2023-09-06T04:07:28.648Z,24.86
2023-09-06T04:09:38.188Z,24.86
2023-09-06T04:11:40.427Z,24.85
2023-09-06T04:13:43.826Z,24.85
2023-09-06T04:15:45.340Z,24.84
2023-09-06T04:17:46.903Z,24.82
2023-09-06T04:19:48.459Z,24.83
2023-09-06T04:21:50.000Z,24.82
2023-09-06T04:23:51.421Z,24.81
2023-09-06T04:25:52.980Z,24.82
2023-09-06T04:27:56.293Z,24.80
2023-09-06T04:29:58.152Z,24.80
2023-09-06T04:31:59.745Z,24.78
2023-09-06T04:34:02.933Z,24.79
2023-09-06T04:36:05.347Z,24.77
2023-09-06T04:38:10.749Z,24.78
2023-09-06T04:40:13.068Z,24.77
2023-09-06T04:42:14.687Z,24.77
2023-09-06T04:44:16.182Z,24.76
2023-09-06T04:46:17.773Z,24.76
2023-09-06T04:48:19.458Z,24.69
2023-09-06T04:50:21.006Z,24.74
2023-09-06T04:52:23.725Z,24.76
2023-09-06T04:54:25.165Z,24.74
2023-09-06T04:56:26.885Z,24.72
2023-09-06T04:58:28.744Z,24.72
2023-09-06T05:00:36.740Z,24.71
2023-09-06T05:02:38.735Z,24.71
2023-09-06T05:04:40.312Z,24.70
2023-09-06T05:06:42.029Z,24.71
2023-09-06T05:08:43.508Z,24.70
2023-09-06T05:10:45.024Z,24.69
2023-09-06T05:12:47.134Z,24.69
2023-09-06T05:14:49.094Z,24.68
2023-09-06T05:16:50.642Z,24.68
2023-09-06T05:18:52.134Z,24.68
2023-09-06T05:20:53.738Z,24.67
2023-09-06T05:22:56.531Z,24.66
2023-09-06T05:24:58.130Z,24.66
2023-09-06T05:26:59.640Z,24.66
2023-09-06T05:29:01.232Z,24.64
2023-09-06T05:31:03.156Z,24.65
2023-09-06T05:33:04.922Z,24.65
2023-09-06T05:35:06.693Z,24.64
2023-09-06T05:37:10.061Z,24.63
2023-09-06T05:39:13.742Z,24.62
2023-09-06T05:41:15.462Z,24.61
2023-09-06T05:43:17.146Z,24.61
2023-09-06T05:45:19.486Z,24.61
2023-09-06T05:47:21.058Z,24.60
2023-09-06T05:49:22.708Z,24.60
2023-09-06T05:51:24.237Z,24.59
2023-09-06T05:53:27.318Z,24.60
2023-09-06T05:55:29.384Z,24.59
2023-09-06T05:57:31.954Z,24.60
2023-09-06T05:59:33.500Z,24.59
2023-09-06T06:01:35.194Z,24.59
2023-09-06T06:03:39.121Z,24.59
2023-09-06T06:05:43.525Z,24.57
2023-09-06T06:07:45.499Z,24.57
2023-09-06T06:09:47.077Z,24.57
2023-09-06T06:11:48.897Z,24.57
2023-09-06T06:14:00.353Z,24.56
2023-09-06T06:16:10.026Z,24.56
2023-09-06T06:18:13.214Z,24.55
2023-09-06T06:20:14.808Z,24.56
2023-09-06T06:22:16.380Z,24.55
2023-09-06T06:24:18.331Z,24.55
2023-09-06T06:26:21.260Z,24.56
2023-09-06T06:28:22.873Z,24.56
2023-09-06T06:30:24.595Z,24.55
2023-09-06T06:32:26.290Z,24.55
2023-09-06T06:34:27.865Z,24.55
2023-09-06T06:36:31.235Z,24.54
2023-09-06T06:38:33.353Z,24.54
2023-09-06T06:40:36.130Z,24.55
2023-09-06T06:42:40.314Z,24.54
2023-09-06T06:44:48.605Z,24.55
2023-09-06T06:46:50.318Z,24.54
2023-09-06T06:48:51.928Z,24.54
2023-09-06T06:50:53.872Z,24.54
2023-09-06T06:52:55.312Z,24.54
2023-09-06T06:54:56.785Z,24.54
2023-09-06T06:56:58.384Z,24.53
2023-09-06T06:59:00.142Z,24.53
2023-09-06T07:01:01.722Z,24.54
2023-09-06T07:03:04.250Z,24.54
2023-09-06T07:05:05.951Z,24.54
2023-09-06T07:07:07.458Z,24.54
2023-09-06T07:09:09.142Z,24.54
2023-09-06T07:11:13.863Z,24.53
2023-09-06T07:13:16.547Z,24.54
2023-09-06T07:15:18.550Z,24.55
2023-09-06T07:17:20.281Z,24.54
2023-09-06T07:19:21.940Z,24.55
2023-09-06T07:21:23.712Z,24.54
2023-09-06T07:23:25.205Z,24.54
2023-09-06T07:25:28.999Z,24.55
2023-09-06T07:27:30.577Z,24.56
2023-09-06T07:29:32.130Z,24.56
2023-09-06T07:31:33.717Z,24.56
2023-09-06T07:33:35.610Z,24.57
2023-09-06T07:35:37.127Z,24.56
2023-09-06T07:37:38.707Z,24.58
2023-09-06T07:39:40.599Z,24.58
2023-09-06T07:41:42.716Z,24.58
2023-09-06T07:43:44.481Z,24.59
2023-09-06T07:45:46.003Z,24.60
2023-09-06T07:47:47.624Z,24.60
2023-09-06T07:49:49.259Z,24.60
2023-09-06T07:51:51.424Z,24.60
2023-09-06T07:53:52.888Z,24.61
2023-09-06T07:55:54.900Z,24.62
2023-09-06T07:57:56.505Z,24.62
2023-09-06T07:59:58.055Z,24.63
2023-09-06T08:01:59.625Z,24.64
2023-09-06T08:04:01.297Z,24.63
2023-09-06T08:06:05.338Z,24.65
2023-09-06T08:08:07.883Z,24.66
2023-09-06T08:10:10.752Z,24.67
2023-09-06T08:12:12.281Z,24.67
2023-09-06T08:14:14.179Z,24.68
2023-09-06T08:16:16.033Z,24.69
2023-09-06T08:18:17.709Z,24.70
2023-09-06T08:20:19.835Z,24.72
2023-09-06T08:22:26.743Z,24.74
2023-09-06T08:24:37.248Z,24.76
2023-09-06T08:26:38.798Z,24.77
2023-09-06T08:28:40.579Z,24.78
2023-09-06T08:30:45.444Z,24.81
2023-09-06T08:32:47.904Z,24.82
2023-09-06T08:34:50.342Z,24.84
2023-09-06T08:36:52.721Z,24.94
2023-09-06T08:38:54.245Z,25.04
2023-09-06T08:40:55.749Z,25.13
2023-09-06T08:43:03.183Z,25.20
2023-09-06T08:45:05.872Z,25.25
2023-09-06T08:47:09.596Z,25.35
2023-09-06T08:49:12.457Z,25.42
2023-09-06T08:51:15.150Z,25.48
2023-09-06T08:53:19.237Z,25.54
2023-09-06T08:55:20.947Z,25.59
2023-09-06T08:57:22.722Z,25.64
2023-09-06T08:59:25.694Z,25.66
2023-09-06T09:01:27.628Z,25.68
2023-09-06T09:03:29.633Z,25.70
2023-09-06T09:05:31.578Z,25.74
2023-09-06T09:07:33.302Z,25.78
2023-09-06T09:09:34.840Z,25.81
2023-09-06T09:11:43.598Z,25.95
2023-09-06T09:13:46.220Z,26.05
2023-09-06T09:15:47.731Z,26.09
2023-09-06T09:17:59.905Z,26.17
2023-09-06T09:20:04.348Z,26.32
2023-09-06T09:22:09.340Z,26.41
2023-09-06T09:24:11.040Z,26.50
2023-09-06T09:26:12.660Z,26.53
2023-09-06T09:28:15.181Z,26.58
2023-09-06T09:30:17.224Z,26.62
2023-09-06T09:32:19.627Z,26.64
2023-09-06T09:34:21.461Z,26.70
2023-09-06T09:36:23.268Z,26.76
2023-09-06T09:38:24.842Z,26.81
2023-09-06T09:42:51.723Z,26.85
2023-09-06T09:45:02.920Z,26.85
2023-09-06T09:47:25.004Z,26.88
2023-09-06T09:49:34.157Z,26.92
2023-09-06T09:51:36.895Z,26.96
2023-09-06T09:53:39.353Z,27.01
2023-09-06T09:55:42.420Z,27.08
2023-09-06T09:57:45.826Z,27.12
2023-09-06T09:59:51.139Z,27.09
2023-09-06T10:01:53.270Z,27.07
2023-09-06T10:03:56.709Z,27.03
2023-09-06T10:05:59.457Z,27.03
2023-09-06T10:08:01.638Z,27.02
2023-09-06T10:10:06.315Z,27.04
2023-09-06T10:12:12.812Z,27.12
2023-09-06T10:14:15.778Z,27.16
2023-09-06T10:16:17.424Z,27.24
2023-09-06T10:18:19.222Z,27.27
2023-09-06T10:20:24.339Z,27.28
2023-09-06T10:22:25.871Z,27.33
2023-09-06T10:24:31.748Z,27.32
2023-09-06T10:26:38.154Z,27.33
2023-09-06T10:28:39.649Z,27.34
2023-09-06T10:30:46.187Z,27.30
2023-09-06T10:32:48.523Z,27.24
2023-09-06T10:35:08.517Z,27.25
2023-09-06T10:37:10.075Z,27.22
2023-09-06T10:39:15.497Z,27.20
2023-09-06T10:41:18.989Z,27.19
2023-09-06T10:43:21.642Z,27.21
2023-09-06T10:45:23.141Z,27.22
2023-09-06T10:47:25.335Z,27.20
2023-09-06T10:49:30.210Z,27.20
2023-09-06T10:51:33.659Z,27.26
2023-09-06T10:55:49.071Z,27.45
2023-09-06T10:57:58.241Z,27.46
2023-09-06T10:59:59.801Z,27.55
2023-09-06T11:02:28.584Z,27.57
2023-09-06T11:04:31.464Z,27.58
2023-09-06T11:06:49.365Z,27.58
2023-09-06T11:08:51.196Z,27.58
2023-09-06T11:13:13.723Z,27.55
2023-09-06T11:15:17.764Z,27.62
2023-09-06T11:17:22.953Z,27.61
2023-09-06T11:19:28.618Z,27.62
2023-09-06T11:21:32.764Z,27.61
2023-09-06T11:23:44.145Z,27.63
2023-09-06T11:25:46.498Z,27.65
2023-09-06T11:27:48.896Z,27.70
2023-09-06T11:30:01.142Z,27.71
2023-09-06T11:32:09.743Z,27.75
2023-09-06T11:34:14.325Z,27.79
2023-09-06T11:36:16.444Z,27.81
2023-09-06T11:38:21.574Z,27.82
2023-09-06T11:40:25.886Z,27.87
2023-09-06T11:42:32.257Z,27.89
2023-09-06T11:44:34.818Z,27.88
2023-09-06T11:46:39.768Z,27.92
2023-09-06T11:48:43.065Z,27.93
2023-09-06T11:50:45.359Z,27.90
2023-09-06T11:52:57.143Z,27.92
2023-09-06T11:55:06.356Z,27.97
2023-09-06T11:57:11.869Z,27.96
2023-09-06T11:59:15.557Z,27.95
2023-09-06T12:01:21.290Z,27.99
2023-09-06T12:03:30.102Z,28.05
2023-09-06T12:05:42.652Z,28.07
2023-09-06T12:07:50.432Z,28.07
2023-09-06T12:09:52.225Z,28.08
2023-09-06T12:11:53.875Z,28.11
2023-09-06T12:13:55.596Z,28.15
2023-09-06T12:15:57.563Z,28.15
2023-09-06T12:18:00.460Z,28.14
2023-09-06T12:20:02.466Z,28.16
2023-09-06T12:22:06.405Z,28.17
2023-09-06T12:24:08.040Z,28.21
2023-09-06T12:26:11.401Z,28.25
2023-09-06T12:28:13.532Z,28.29
2023-09-06T12:30:17.425Z,28.35
2023-09-06T12:32:18.891Z,28.43
2023-09-06T12:34:20.358Z,28.47
2023-09-06T12:36:21.896Z,28.50
2023-09-06T12:38:23.373Z,28.48
2023-09-06T12:40:28.924Z,28.43
2023-09-06T12:42:30.508Z,28.43
2023-09-06T12:44:32.175Z,28.46
2023-09-06T12:46:33.736Z,28.49
2023-09-06T12:48:36.132Z,28.53
2023-09-06T12:50:37.889Z,28.56
2023-09-06T12:52:39.478Z,28.60
2023-09-06T12:54:41.001Z,28.59
2023-09-06T12:56:42.887Z,28.64
2023-09-06T12:58:44.792Z,28.68
2023-09-06T13:00:47.180Z,28.65
2023-09-06T13:02:48.834Z,28.67
2023-09-06T13:04:50.624Z,28.73
2023-09-06T13:06:52.454Z,28.75
2023-09-06T13:08:54.189Z,28.79
2023-09-06T13:10:55.703Z,28.81
2023-09-06T13:12:57.285Z,28.83
2023-09-06T13:14:59.031Z,28.87
2023-09-06T13:17:00.795Z,28.89
2023-09-06T13:23:16.086Z,28.90
2023-09-06T13:25:17.672Z,28.89
2023-09-06T13:27:19.484Z,28.90
2023-09-06T13:29:21.066Z,28.94
2023-09-06T13:31:22.771Z,28.94
2023-09-06T13:35:30.797Z,28.91
2023-09-06T13:37:33.388Z,28.89
2023-09-06T13:39:35.029Z,28.86
2023-09-06T13:41:37.156Z,28.90
2023-09-06T13:45:45.786Z,29.01
2023-09-06T13:47:47.644Z,28.99
2023-09-06T13:49:50.554Z,28.97
2023-09-06T13:51:52.217Z,28.98
2023-09-06T13:53:53.878Z,29.03
2023-09-06T13:55:55.436Z,29.04
2023-09-06T13:57:57.242Z,29.03
2023-09-06T13:59:58.757Z,29.05
2023-09-06T14:02:00.544Z,29.08
2023-09-06T14:04:04.348Z,29.09
2023-09-06T14:06:06.812Z,29.12
2023-09-06T14:08:08.413Z,29.18
2023-09-06T14:12:16.521Z,29.18
2023-09-06T14:14:18.376Z,29.19
2023-09-06T14:16:20.122Z,29.24
2023-09-06T14:24:36.471Z,29.22
2023-09-06T14:26:38.614Z,29.17
2023-09-06T14:28:40.201Z,29.22
2023-09-06T14:30:41.940Z,29.25
2023-09-06T14:32:43.494Z,29.25
2023-09-06T14:34:45.130Z,29.28
2023-09-06T14:36:46.773Z,29.34
2023-09-06T14:38:48.306Z,29.32
2023-09-06T14:40:49.841Z,29.31
2023-09-06T14:42:51.344Z,29.32
2023-09-06T14:44:53.168Z,29.36
2023-09-06T14:46:54.787Z,29.38
2023-09-06T14:48:56.399Z,29.44
2023-09-06T14:50:59.078Z,29.43
2023-09-06T14:53:00.755Z,29.35
2023-09-06T14:55:02.295Z,29.32
2023-09-06T14:57:03.824Z,29.32
2023-09-06T14:59:05.330Z,29.35
2023-09-06T15:01:09.225Z,29.34
2023-09-06T15:03:11.440Z,29.36
2023-09-06T15:05:14.399Z,29.40
2023-09-06T15:07:15.958Z,29.40
2023-09-06T15:09:17.696Z,29.39
2023-09-06T15:11:19.367Z,29.37
2023-09-06T15:13:20.849Z,29.38
2023-09-06T15:15:22.435Z,29.40
2023-09-06T15:17:24.127Z,29.40
2023-09-06T15:19:25.696Z,29.41
2023-09-06T15:21:27.644Z,29.39
2023-09-06T15:23:29.325Z,29.40
2023-09-06T15:25:30.855Z,29.40
2023-09-06T15:27:32.598Z,29.37
2023-09-06T15:29:34.111Z,29.34
2023-09-06T15:31:35.647Z,29.30
2023-09-06T15:33:38.084Z,29.29
2023-09-06T15:35:39.654Z,29.31
2023-09-06T15:37:59.418Z,29.35
2023-09-06T15:40:01.160Z,29.28
2023-09-06T15:42:04.474Z,29.19
2023-09-06T15:44:06.498Z,29.19
2023-09-06T15:46:08.320Z,29.12
2023-09-06T15:48:09.957Z,29.05
2023-09-06T15:50:13.840Z,29.07
2023-09-06T15:52:15.394Z,28.98
2023-09-06T15:54:16.967Z,28.92
2023-09-06T15:56:20.394Z,28.87
2023-09-06T15:58:21.886Z,28.84
2023-09-06T16:02:28.199Z,28.83
2023-09-06T16:04:30.047Z,28.77
2023-09-06T16:06:32.101Z,28.74
2023-09-06T16:08:33.993Z,28.74
2023-09-06T16:10:35.877Z,28.69
2023-09-06T16:12:38.599Z,28.67
2023-09-06T16:14:40.265Z,28.72
2023-09-06T16:16:42.147Z,28.74
2023-09-06T16:18:48.057Z,28.75
2023-09-06T16:20:49.648Z,28.73
2023-09-06T16:22:51.228Z,28.63
2023-09-06T16:24:52.810Z,28.58
2023-09-06T16:26:56.023Z,28.57
2023-09-06T16:28:57.833Z,28.57
2023-09-06T16:30:59.382Z,28.53
2023-09-06T16:33:01.431Z,28.52
2023-09-06T16:35:08.911Z,28.53
2023-09-06T16:37:10.905Z,28.57
2023-09-06T16:39:12.401Z,28.54
2023-09-06T16:41:15.646Z,28.52
2023-09-06T16:43:17.257Z,28.51
2023-09-06T16:45:19.749Z,28.46
2023-09-06T16:47:21.468Z,28.46
2023-09-06T16:49:22.934Z,28.46
2023-09-06T16:51:24.892Z,28.50
2023-09-06T16:53:26.924Z,28.45
2023-09-06T16:55:28.519Z,28.42
2023-09-06T16:57:30.346Z,28.32
2023-09-06T16:59:32.394Z,28.38
2023-09-06T17:01:34.244Z,28.34
2023-09-06T17:03:35.977Z,28.33
2023-09-06T17:05:37.665Z,28.33
2023-09-06T17:07:39.342Z,28.42
2023-09-06T17:09:40.871Z,28.45
2023-09-06T17:11:44.693Z,28.46
2023-09-06T17:13:46.317Z,28.52
2023-09-06T17:15:48.075Z,28.52
2023-09-06T17:17:50.936Z,28.51
2023-09-06T17:19:52.541Z,28.46
2023-09-06T17:21:54.954Z,28.54
2023-09-06T17:24:03.390Z,28.50
2023-09-06T17:26:08.323Z,28.49
2023-09-06T17:28:10.403Z,28.42
2023-09-06T17:30:20.296Z,28.36
2023-09-06T17:32:23.435Z,28.36
2023-09-06T17:34:25.029Z,28.37
2023-09-06T17:36:26.630Z,28.36
2023-09-06T17:38:28.495Z,28.36
2023-09-06T17:40:30.303Z,28.34
2023-09-06T17:42:32.478Z,28.35
2023-09-06T17:44:36.532Z,28.32
2023-09-06T17:46:38.179Z,28.32
2023-09-06T17:48:39.842Z,28.31
2023-09-06T17:50:48.558Z,28.40
2023-09-06T17:52:50.382Z,28.37
2023-09-06T17:54:52.100Z,28.37
2023-09-06T17:56:54.882Z,28.35
2023-09-06T17:58:57.750Z,28.29
2023-09-06T18:01:00.260Z,28.31
2023-09-06T18:03:02.157Z,28.31
2023-09-06T18:05:04.119Z,28.29
2023-09-06T18:07:05.894Z,28.25
2023-09-06T18:09:08.883Z,28.25
2023-09-06T18:11:13.144Z,28.23
2023-09-06T18:13:15.347Z,28.21
2023-09-06T18:15:18.270Z,28.20
2023-09-06T18:17:19.886Z,28.17
2023-09-06T18:19:26.479Z,28.15
2023-09-06T18:21:28.988Z,28.15
2023-09-06T18:23:33.657Z,28.13
2023-09-06T18:25:36.331Z,28.12
2023-09-06T18:27:38.638Z,28.14
2023-09-06T18:29:40.220Z,28.13
2023-09-06T18:31:41.732Z,28.13
2023-09-06T18:33:43.261Z,28.12
2023-09-06T18:35:46.492Z,28.10
2023-09-06T18:37:50.200Z,28.08
2023-09-06T18:39:51.787Z,28.04
2023-09-06T18:41:53.301Z,28.01
2023-09-06T18:43:56.002Z,27.99
2023-09-06T18:45:57.728Z,27.93
2023-09-06T18:48:00.624Z,27.87
2023-09-06T18:50:08.244Z,27.87
2023-09-06T18:52:09.860Z,27.85
2023-09-06T18:54:11.550Z,27.83
2023-09-06T18:56:13.275Z,27.81
2023-09-06T18:58:16.567Z,27.80
2023-09-06T19:00:22.993Z,27.77
2023-09-06T19:02:24.852Z,27.74
2023-09-06T19:04:26.485Z,27.71
2023-09-06T19:06:30.794Z,27.70
2023-09-06T19:08:34.314Z,27.71
2023-09-06T19:10:36.359Z,27.74
2023-09-06T19:12:38.886Z,27.77
2023-09-06T19:14:40.362Z,27.77
2023-09-06T19:16:41.983Z,27.74
2023-09-06T19:18:43.763Z,27.76
2023-09-06T19:20:45.333Z,27.74
2023-09-06T19:22:47.954Z,27.72
2023-09-06T19:24:50.052Z,27.69
2023-09-06T19:26:51.586Z,27.67
2023-09-06T19:28:53.178Z,27.66
2023-09-06T19:30:58.658Z,27.65
2023-09-06T19:33:00.699Z,27.64
2023-09-06T19:35:02.650Z,27.62
2023-09-06T19:37:04.645Z,27.62
2023-09-06T19:39:06.784Z,27.59
2023-09-06T19:41:10.775Z,27.54
2023-09-06T19:43:12.305Z,27.52
2023-09-06T19:45:13.747Z,27.52
2023-09-06T19:47:18.350Z,27.50
2023-09-06T19:49:20.072Z,27.49
2023-09-06T19:51:21.518Z,27.47
2023-09-06T19:53:23.322Z,27.46
2023-09-06T19:55:24.848Z,27.44
2023-09-06T19:57:26.476Z,27.42
2023-09-06T19:59:28.065Z,27.40
2023-09-06T20:01:31.171Z,27.38
2023-09-06T20:03:32.893Z,27.36
2023-09-06T20:05:35.062Z,27.35
2023-09-06T20:07:36.776Z,27.34
2023-09-06T20:09:39.742Z,27.32
2023-09-06T20:11:41.313Z,27.32
2023-09-06T20:13:43.569Z,27.30
2023-09-06T20:15:45.166Z,27.29
2023-09-06T20:17:46.810Z,27.26
2023-09-06T20:19:48.562Z,27.19
2023-09-06T20:21:50.202Z,27.24
2023-09-06T20:23:52.250Z,27.23
2023-09-06T20:25:54.616Z,27.21
2023-09-06T20:27:56.136Z,27.20
2023-09-06T20:29:57.946Z,27.17
2023-09-06T20:32:01.005Z,27.16
2023-09-06T20:34:02.731Z,27.16
2023-09-06T20:36:04.781Z,27.15
2023-09-06T20:38:06.329Z,27.14
2023-09-06T20:40:08.625Z,27.11
2023-09-06T20:42:10.208Z,27.09
2023-09-06T20:44:11.899Z,27.08
2023-09-06T20:46:16.367Z,27.06
2023-09-06T20:48:18.591Z,27.05
2023-09-06T20:50:20.673Z,27.03
2023-09-06T20:52:22.187Z,27.02
2023-09-06T20:54:24.000Z,26.99
2023-09-06T20:56:25.759Z,26.98
2023-09-06T20:58:27.336Z,26.99
2023-09-06T21:00:29.355Z,26.98
2023-09-06T21:02:31.214Z,26.97
2023-09-06T21:04:32.887Z,26.95
2023-09-06T21:06:34.578Z,26.93
2023-09-06T21:08:36.103Z,26.93
2023-09-06T21:10:37.695Z,26.91
2023-09-06T21:12:39.294Z,26.90
2023-09-06T21:14:40.953Z,26.89
2023-09-06T21:16:42.507Z,26.88
2023-09-06T21:18:44.288Z,26.87
2023-09-06T21:20:46.018Z,26.85
2023-09-06T21:22:49.829Z,26.85
2023-09-06T21:24:51.513Z,26.84
2023-09-06T21:26:53.120Z,26.83
2023-09-06T21:28:56.904Z,26.82
2023-09-06T21:30:58.529Z,26.81
2023-09-06T21:33:00.449Z,26.81
2023-09-06T21:35:02.420Z,26.80
2023-09-06T21:37:04.377Z,26.78
2023-09-06T21:39:08.994Z,26.77
2023-09-06T21:41:10.721Z,26.76
2023-09-06T21:43:18.302Z,26.75
2023-09-06T21:45:20.893Z,26.75
2023-09-06T21:47:23.394Z,26.74
2023-09-06T21:49:24.937Z,26.72
2023-09-06T21:51:26.557Z,26.73
2023-09-06T21:53:28.028Z,26.72
2023-09-06T21:55:29.722Z,26.70
2023-09-06T21:57:31.159Z,26.69
2023-09-06T21:59:32.866Z,26.69
2023-09-06T22:01:37.927Z,26.68
2023-09-06T22:03:39.723Z,26.67
2023-09-06T22:05:41.189Z,26.66
2023-09-06T22:07:42.871Z,26.66
2023-09-06T22:09:47.405Z,26.65
2023-09-06T22:11:48.954Z,26.62
2023-09-06T22:13:50.420Z,26.62
2023-09-06T22:15:52.121Z,26.60
2023-09-06T22:17:53.740Z,26.59
2023-09-06T22:19:58.532Z,26.58
2023-09-06T22:22:00.089Z,26.57
2023-09-06T22:24:01.621Z,26.57
2023-09-06T22:26:03.179Z,26.56
2023-09-06T22:28:09.587Z,26.54
2023-09-06T22:30:11.687Z,26.54
2023-09-06T22:32:13.203Z,26.55
2023-09-06T22:34:14.778Z,26.53
2023-09-06T22:36:16.316Z,26.52
2023-09-06T22:38:20.666Z,26.52
2023-09-06T22:40:22.322Z,26.51
2023-09-06T22:42:23.832Z,26.51
2023-09-06T22:44:25.559Z,26.49
2023-09-06T22:46:28.640Z,26.49
2023-09-06T22:48:48.054Z,26.47
2023-09-06T22:50:52.338Z,26.47
2023-09-06T22:52:54.008Z,26.45
2023-09-06T22:54:56.054Z,26.44
2023-09-06T22:56:57.770Z,26.43
2023-09-06T22:59:00.093Z,26.42
2023-09-06T23:01:08.411Z,26.41
2023-09-06T23:03:14.767Z,26.38
2023-09-06T23:05:16.544Z,26.38
2023-09-06T23:07:22.251Z,26.36
2023-09-06T23:09:23.877Z,26.36
2023-09-06T23:11:25.679Z,26.34
2023-09-06T23:13:27.203Z,26.32
2023-09-06T23:15:30.175Z,26.33
2023-09-06T23:19:44.847Z,26.30
2023-09-06T23:21:47.412Z,26.30
2023-09-06T23:23:50.054Z,26.29
2023-09-06T23:25:53.560Z,26.29
2023-09-06T23:27:56.128Z,26.28
2023-09-06T23:30:02.877Z,26.26
2023-09-06T23:32:07.929Z,26.25
2023-09-06T23:34:15.674Z,26.26
2023-09-06T23:36:18.879Z,26.25
2023-09-06T23:38:21.835Z,26.25
2023-09-06T23:40:24.982Z,26.24
2023-09-06T23:42:28.241Z,26.24
2023-09-06T23:44:29.733Z,26.24
2023-09-06T23:46:31.529Z,26.23
2023-09-06T23:48:33.281Z,26.23
2023-09-06T23:50:34.972Z,26.21
2023-09-06T23:52:36.444Z,26.20
2023-09-06T23:54:47.167Z,26.19
2023-09-06T23:56:49.922Z,26.19
2023-09-06T23:58:51.502Z,26.19
